Time;durP1;ratioP1;P1;durP2;ratioP2;P2;SDS_P1;SDS_P2;PMS_P1;PMS_P2;Temp;Humidity;BMP_temperature;BMP_pressure;BME280_temperature;BME280_humidity;BME280_pressure;Samples;Min_cycle;Max_cycle;Signal;HPM_P1;HPM_P2
2021/08/02 00:02:50;;;;;;;5.80;2.03;;;;;;;;;;4978655;28;20119;-92
2021/08/02 00:05:18;;;;;;;5.15;2.00;;;;;;;;;;4958836;28;20395;-91
2021/08/02 00:07:49;;;;;;;13.65;2.47;;;;;;;;;;4961301;28;20159;-91
2021/08/02 00:10:16;;;;;;;6.22;2.20;;;;;;;;;;4961508;28;20118;-91
2021/08/02 00:13:08;;;;;;;4.40;1.70;;;;;;;;;;4961809;28;20051;-91
2021/08/02 00:16:13;;;;;;;6.00;1.83;;;;;;;;;;4938239;29;20056;-92
2021/08/02 00:22:16;;;;;;;6.65;1.83;;;;;;;;;;4949892;29;20050;-91
2021/08/02 00:24:44;;;;;;;8.50;1.90;;;;;;;;;;4938192;28;20121;-92
2021/08/02 00:27:14;;;;;;;9.85;2.72;;;;;;;;;;4941493;29;20058;-92
2021/08/02 00:29:42;;;;;;;13.07;2.00;;;;;;;;;;4941840;29;20047;-92
2021/08/02 00:32:09;;;;;;;13.27;2.25;;;;;;;;;;4958937;28;20114;-92
2021/08/02 00:34:38;;;;;;;9.93;2.20;;;;;;;;;;4939770;29;20055;-92
2021/08/02 00:37:27;;;;;;;4.38;1.75;;;;;;;;;;4941742;29;20059;-92
2021/08/02 00:40:01;;;;;;;7.55;1.98;;;;;;;;;;4941780;29;20103;-92
2021/08/02 00:42:38;;;;;;;8.63;2.00;;;;;;;;;;4942224;29;20399;-92
2021/08/02 00:45:22;;;;;;;3.42;1.55;;;;;;;;;;4949695;28;20062;-91
2021/08/02 00:47:51;;;;;;;6.15;1.80;;;;;;;;;;4959739;28;20130;-92
2021/08/02 00:50:21;;;;;;;6.18;1.65;;;;;;;;;;4960315;28;20110;-91
2021/08/02 00:52:51;;;;;;;5.07;1.50;;;;;;;;;;4960149;28;20047;-91
2021/08/02 00:55:19;;;;;;;5.32;2.28;;;;;;;;;;4952373;28;20051;-91
2021/08/02 00:57:49;;;;;;;7.80;1.80;;;;;;;;;;4965843;28;20098;-91
2021/08/02 01:00:18;;;;;;;8.38;2.20;;;;;;;;;;4940947;29;20106;-91
2021/08/02 01:02:48;;;;;;;8.88;2.20;;;;;;;;;;4940939;29;20114;-91
2021/08/02 01:05:15;;;;;;;9.02;2.50;;;;;;;;;;4938208;28;20084;-91
2021/08/02 01:07:57;;;;;;;9.68;1.95;;;;;;;;;;4940811;29;20078;-91
2021/08/02 01:10:25;;;;;;;9.00;2.30;;;;;;;;;;4940999;29;20483;-91
2021/08/02 01:13:12;;;;;;;6.10;2.00;;;;;;;;;;4941246;29;20377;-91
2021/08/02 01:15:45;;;;;;;6.00;1.92;;;;;;;;;;4954100;29;20103;-91
2021/08/02 01:21:47;;;;;;;11.05;2.00;;;;;;;;;;4957838;29;20448;-91
2021/08/02 01:24:14;;;;;;;11.73;2.28;;;;;;;;;;4938517;28;20098;-92
2021/08/02 01:26:44;;;;;;;9.07;1.85;;;;;;;;;;4955663;29;20111;-91
2021/08/02 01:29:31;;;;;;;12.00;2.08;;;;;;;;;;4959609;28;20125;-91
2021/08/02 01:32:30;;;;;;;11.38;2.38;;;;;;;;;;4959721;28;20050;-92
2021/08/02 01:34:57;;;;;;;6.38;2.00;;;;;;;;;;4947434;29;20058;-92
2021/08/02 01:37:31;;;;;;;8.25;2.13;;;;;;;;;;4957233;28;20062;-92
2021/08/02 01:39:58;;;;;;;10.15;2.42;;;;;;;;;;4940456;29;20055;-91
2021/08/02 01:45:44;;;;;;;5.45;1.92;;;;;;;;;;4954544;28;20086;-91
2021/08/02 01:51:59;;;;;;;5.97;1.83;;;;;;;;;;4960427;29;20038;-91
2021/08/02 01:58:14;;;;;;;6.95;1.98;;;;;;;;;;4961057;29;20104;-91
2021/08/02 02:00:56;;;;;;;7.80;2.40;;;;;;;;;;4957346;29;20058;-90
2021/08/02 02:03:37;;;;;;;9.05;2.25;;;;;;;;;;4956790;28;20046;-90
2021/08/02 02:06:07;;;;;;;8.55;2.08;;;;;;;;;;4961170;29;20031;-91
2021/08/02 02:08:47;;;;;;;11.40;2.30;;;;;;;;;;4942760;29;20079;-90
2021/08/02 02:11:14;;;;;;;8.70;2.97;;;;;;;;;;4940047;28;20047;-91
2021/08/02 02:17:12;;;;;;;8.68;2.63;;;;;;;;;;4956539;29;20046;-90
2021/08/02 02:19:40;;;;;;;9.32;2.17;;;;;;;;;;4951234;29;20075;-90
2021/08/02 02:22:07;;;;;;;9.50;2.78;;;;;;;;;;4939686;29;20047;-90
2021/08/02 02:24:39;;;;;;;7.18;2.58;;;;;;;;;;4946092;28;20079;-90
2021/08/02 02:27:07;;;;;;;8.63;1.85;;;;;;;;;;4937357;29;20044;-90
2021/08/02 02:29:35;;;;;;;9.32;2.55;;;;;;;;;;4920722;29;20103;-90
2021/08/02 02:32:05;;;;;;;15.02;2.40;;;;;;;;;;4920158;29;20492;-91
2021/08/02 02:34:35;;;;;;;9.68;2.20;;;;;;;;;;4915126;29;20051;-90
2021/08/02 02:37:04;;;;;;;10.45;2.80;;;;;;;;;;4920945;29;20055;-90
2021/08/02 02:39:38;;;;;;;6.30;2.20;;;;;;;;;;4946568;29;20488;-90
2021/08/02 02:42:14;;;;;;;6.47;2.67;;;;;;;;;;4955545;28;20142;-90
2021/08/02 02:44:47;;;;;;;9.70;2.13;;;;;;;;;;4939295;28;20044;-91
2021/08/02 02:47:18;;;;;;;7.72;2.25;;;;;;;;;;4936130;29;20102;-90
2021/08/02 02:49:46;;;;;;;5.07;2.30;;;;;;;;;;4954812;29;20075;-90
2021/08/02 02:52:14;;;;;;;7.55;2.58;;;;;;;;;;4955104;29;20511;-90
2021/08/02 02:54:42;;;;;;;10.88;2.60;;;;;;;;;;4947996;28;20051;-91
2021/08/02 02:57:23;;;;;;;7.57;2.70;;;;;;;;;;4962562;28;20404;-91
2021/08/02 02:59:50;;;;;;;8.73;3.80;;;;;;;;;;4939120;29;20051;-91
2021/08/02 03:02:20;;;;;;;10.75;2.30;;;;;;;;;;4938517;29;20143;-90
2021/08/02 03:04:48;;;;;;;8.85;2.60;;;;;;;;;;4948360;28;20484;-91
2021/08/02 03:07:16;;;;;;;5.28;2.38;;;;;;;;;;4955045;28;20071;-86
2021/08/02 03:09:47;;;;;;;6.53;2.40;;;;;;;;;;4935855;28;20062;-86
2021/08/02 03:12:19;;;;;;;8.20;2.30;;;;;;;;;;4955377;28;20127;-86
2021/08/02 03:14:52;;;;;;;5.43;2.25;;;;;;;;;;4927550;29;20860;-85
2021/08/02 03:17:21;;;;;;;6.80;2.35;;;;;;;;;;4936847;29;20085;-87
2021/08/02 03:19:48;;;;;;;10.63;3.13;;;;;;;;;;4943783;28;20089;-86
2021/08/02 03:22:22;;;;;;;10.43;2.83;;;;;;;;;;4951146;29;20126;-86
2021/08/02 03:24:52;;;;;;;7.72;2.92;;;;;;;;;;4940965;28;20082;-86
2021/08/02 03:27:43;;;;;;;9.85;2.58;;;;;;;;;;4945673;28;20078;-86
2021/08/02 03:30:16;;;;;;;8.30;2.80;;;;;;;;;;4932048;29;20135;-87
2021/08/02 03:32:46;;;;;;;13.52;3.03;;;;;;;;;;4951122;28;20051;-86
2021/08/02 03:35:16;;;;;;;7.50;2.63;;;;;;;;;;4935325;28;20547;-86
2021/08/02 03:37:45;;;;;;;14.63;3.28;;;;;;;;;;4938480;29;20807;-86
2021/08/02 03:40:15;;;;;;;12.35;2.67;;;;;;;;;;4938860;29;20082;-87
2021/08/02 03:42:43;;;;;;;9.57;2.67;;;;;;;;;;4954503;28;20063;-86
2021/08/02 03:45:11;;;;;;;5.85;2.67;;;;;;;;;;4920488;29;20083;-87
2021/08/02 03:47:38;;;;;;;16.92;2.85;;;;;;;;;;4938786;29;20094;-86
2021/08/02 03:50:07;;;;;;;7.38;2.72;;;;;;;;;;4927985;29;20043;-87
2021/08/02 03:52:38;;;;;;;10.65;3.35;;;;;;;;;;4938409;29;20062;-87
2021/08/02 03:55:07;;;;;;;8.80;2.90;;;;;;;;;;4927616;29;20059;-88
2021/08/02 03:57:35;;;;;;;15.25;3.10;;;;;;;;;;4939229;29;20071;-88
2021/08/02 04:00:03;;;;;;;10.07;3.67;;;;;;;;;;4938475;29;20070;-86
2021/08/02 04:02:30;;;;;;;9.45;2.42;;;;;;;;;;4937821;29;20082;-86
2021/08/02 04:04:59;;;;;;;10.20;2.75;;;;;;;;;;4958835;28;20059;-86
2021/08/02 04:07:26;;;;;;;11.88;3.03;;;;;;;;;;4955992;28;20082;-87
2021/08/02 04:09:54;;;;;;;6.53;2.65;;;;;;;;;;4938750;29;20133;-87
2021/08/02 04:12:22;;;;;;;9.85;3.20;;;;;;;;;;4945621;28;20047;-85
2021/08/02 04:14:50;;;;;;;36.78;4.18;;;;;;;;;;4934807;28;20074;-86
2021/08/02 04:17:17;;;;;;;14.10;2.83;;;;;;;;;;4933443;29;20070;-86
2021/08/02 04:19:44;;;;;;;5.72;2.50;;;;;;;;;;4967322;28;20078;-86
2021/08/02 04:22:12;;;;;;;13.43;3.28;;;;;;;;;;4949733;29;20047;-86
2021/08/02 04:24:40;;;;;;;14.93;4.22;;;;;;;;;;4937672;28;20106;-86
2021/08/02 04:27:09;;;;;;;6.25;3.10;;;;;;;;;;4950025;28;20047;-85
2021/08/02 04:29:36;;;;;;;10.63;3.10;;;;;;;;;;4934874;29;20115;-85
2021/08/02 04:32:04;;;;;;;11.35;3.28;;;;;;;;;;4927491;29;20055;-86
2021/08/02 04:34:34;;;;;;;8.73;3.08;;;;;;;;;;4944935;28;20085;-87
2021/08/02 04:37:01;;;;;;;7.03;2.95;;;;;;;;;;4953113;28;20051;-85
2021/08/02 04:39:28;;;;;;;13.70;3.00;;;;;;;;;;4937776;29;20051;-86
2021/08/02 04:42:02;;;;;;;12.32;2.97;;;;;;;;;;4953983;28;20079;-86
2021/08/02 04:44:29;;;;;;;7.97;2.55;;;;;;;;;;4943385;28;20051;-86
2021/08/02 04:46:57;;;;;;;17.67;2.85;;;;;;;;;;4935977;28;20047;-86
2021/08/02 04:49:24;;;;;;;11.38;3.90;;;;;;;;;;4953609;29;20543;-86
2021/08/02 04:51:53;;;;;;;8.63;2.75;;;;;;;;;;4937523;29;20511;-86
2021/08/02 04:54:21;;;;;;;8.45;2.53;;;;;;;;;;4939553;29;20050;-85
2021/08/02 04:56:48;;;;;;;8.65;2.72;;;;;;;;;;4939791;28;20547;-85
2021/08/02 04:59:15;;;;;;;9.77;2.85;;;;;;;;;;4936557;29;20043;-86
2021/08/02 05:01:42;;;;;;;7.38;3.30;;;;;;;;;;4929468;28;20051;-86
2021/08/02 05:04:13;;;;;;;5.47;2.30;;;;;;;;;;4918438;28;20126;-86
2021/08/02 05:06:40;;;;;;;18.23;3.80;;;;;;;;;;4943945;28;20055;-86
2021/08/02 05:09:07;;;;;;;10.35;2.78;;;;;;;;;;4928783;29;20115;-87
2021/08/02 05:11:35;;;;;;;10.68;3.40;;;;;;;;;;4934162;28;20058;-85
2021/08/02 05:14:02;;;;;;;7.05;2.65;;;;;;;;;;4923730;28;20118;-87
2021/08/02 05:16:35;;;;;;;9.80;3.35;;;;;;;;;;4934060;29;20665;-87
2021/08/02 05:19:02;;;;;;;12.73;2.83;;;;;;;;;;4953038;28;20502;-86
2021/08/02 05:21:31;;;;;;;7.45;2.75;;;;;;;;;;4949297;28;20090;-87
2021/08/02 05:23:58;;;;;;;7.75;2.60;;;;;;;;;;4945790;28;20046;-87
2021/08/02 05:26:25;;;;;;;20.08;3.33;;;;;;;;;;4941794;28;20038;-87
2021/08/02 05:28:52;;;;;;;5.03;2.75;;;;;;;;;;4939643;28;20075;-85
2021/08/02 05:31:19;;;;;;;17.05;2.95;;;;;;;;;;4953947;28;20130;-86
2021/08/02 05:33:51;;;;;;;7.53;2.85;;;;;;;;;;4927295;29;20507;-86
2021/08/02 05:36:19;;;;;;;14.48;3.35;;;;;;;;;;4923166;29;20153;-86
2021/08/02 05:38:46;;;;;;;12.13;3.15;;;;;;;;;;4952385;29;20055;-86
2021/08/02 05:41:14;;;;;;;13.00;3.42;;;;;;;;;;4938039;29;20079;-86
2021/08/02 05:43:50;;;;;;;13.18;3.00;;;;;;;;;;4934524;29;20930;-85
2021/08/02 05:46:17;;;;;;;;;;;;;;;;;;4942747;28;20148;-86
2021/08/02 05:48:49;;;;;;;8.52;2.97;;;;;;;;;;4939018;29;20020;-86
2021/08/02 05:51:16;;;;;;;6.93;2.45;;;;;;;;;;4951182;29;20109;-84
2021/08/02 05:53:44;;;;;;;11.57;2.92;;;;;;;;;;4946347;28;20169;-85
2021/08/02 05:56:17;;;;;;;7.63;2.60;;;;;;;;;;4930736;28;20408;-86
2021/08/02 05:58:54;;;;;;;8.70;2.67;;;;;;;;;;4950775;28;20058;-85
2021/08/02 06:01:23;;;;;;;8.77;3.20;;;;;;;;;;4937752;29;20062;-85
2021/08/02 06:03:51;;;;;;;7.28;2.50;;;;;;;;;;4932836;29;20087;-85
2021/08/02 06:06:19;;;;;;;12.80;3.22;;;;;;;;;;4926316;29;20094;-85
2021/08/02 06:08:47;;;;;;;9.20;2.83;;;;;;;;;;4934889;28;20122;-86
2021/08/02 06:11:16;;;;;;;12.07;2.55;;;;;;;;;;4933011;29;20138;-87
2021/08/02 06:13:43;;;;;;;15.68;2.95;;;;;;;;;;4926887;29;20090;-85
2021/08/02 06:16:10;;;;;;;14.50;2.60;;;;;;;;;;4930435;28;20126;-86
2021/08/02 06:18:37;;;;;;;8.60;2.80;;;;;;;;;;4950536;28;20754;-85
2021/08/02 06:21:05;;;;;;;8.77;2.70;;;;;;;;;;4934897;29;20145;-86
2021/08/02 06:23:32;;;;;;;9.55;3.00;;;;;;;;;;4929184;29;20067;-85
2021/08/02 06:26:00;;;;;;;10.27;2.67;;;;;;;;;;4932281;28;20047;-86
2021/08/02 06:28:28;;;;;;;8.10;2.20;;;;;;;;;;4948345;28;20174;-86
2021/08/02 06:31:00;;;;;;;11.15;2.35;;;;;;;;;;4962975;28;20055;-86
2021/08/02 06:33:28;;;;;;;9.27;2.40;;;;;;;;;;4931131;28;20086;-86
2021/08/02 06:35:55;;;;;;;6.97;2.20;;;;;;;;;;4930574;29;20559;-85
2021/08/02 06:38:23;;;;;;;7.28;2.47;;;;;;;;;;4956113;28;20054;-85
2021/08/02 06:40:54;;;;;;;8.13;2.33;;;;;;;;;;4963694;28;20082;-87
2021/08/02 06:43:21;;;;;;;9.85;2.63;;;;;;;;;;4946314;28;20074;-87
2021/08/02 06:45:55;;;;;;;12.27;2.75;;;;;;;;;;4936195;29;20161;-86
2021/08/02 06:48:22;;;;;;;5.75;2.30;;;;;;;;;;4951580;28;20138;-86
2021/08/02 06:50:50;;;;;;;9.63;2.50;;;;;;;;;;4950106;28;20043;-86
2021/08/02 06:53:18;;;;;;;5.30;1.88;;;;;;;;;;4932481;28;20058;-85
2021/08/02 06:55:47;;;;;;;9.60;2.63;;;;;;;;;;4924493;29;20075;-86
2021/08/02 06:58:19;;;;;;;9.13;2.33;;;;;;;;;;4942364;28;20491;-86
2021/08/02 07:00:46;;;;;;;8.07;2.10;;;;;;;;;;4955037;28;20846;-86
2021/08/02 07:03:15;;;;;;;13.57;2.15;;;;;;;;;;4938527;29;20134;-86
2021/08/02 07:05:42;;;;;;;9.93;2.30;;;;;;;;;;4927918;29;20051;-86
2021/08/02 07:08:09;;;;;;;8.65;1.70;;;;;;;;;;4956103;29;20058;-87
2021/08/02 07:10:37;;;;;;;15.60;2.38;;;;;;;;;;4942907;29;20122;-86
2021/08/02 07:13:08;;;;;;;6.88;2.40;;;;;;;;;;4954300;29;20605;-85
2021/08/02 07:15:36;;;;;;;9.05;2.80;;;;;;;;;;4925895;29;20051;-85
2021/08/02 07:18:04;;;;;;;15.80;3.35;;;;;;;;;;4953280;28;20067;-86
2021/08/02 07:20:31;;;;;;;14.00;2.00;;;;;;;;;;4955729;28;20157;-85
2021/08/02 07:23:03;;;;;;;12.45;2.40;;;;;;;;;;4955792;28;20154;-85
2021/08/02 07:25:33;;;;;;;6.03;2.97;;;;;;;;;;4940548;28;20143;-86
2021/08/02 07:28:02;;;;;;;15.98;2.40;;;;;;;;;;4957295;28;20055;-86
2021/08/02 07:30:29;;;;;;;14.57;2.85;;;;;;;;;;4945980;29;20055;-85
2021/08/02 07:32:57;;;;;;;7.10;2.20;;;;;;;;;;4949669;29;20078;-85
2021/08/02 07:35:30;;;;;;;5.38;1.85;;;;;;;;;;4935102;28;20476;-86
2021/08/02 07:37:58;;;;;;;6.22;2.03;;;;;;;;;;4954819;29;20134;-85
2021/08/02 07:40:25;;;;;;;8.30;2.20;;;;;;;;;;4938448;29;20136;-86
2021/08/02 07:42:53;;;;;;;7.95;2.00;;;;;;;;;;4938777;28;20126;-85
2021/08/02 07:45:20;;;;;;;10.73;2.38;;;;;;;;;;4932192;28;20083;-86
2021/08/02 07:47:47;;;;;;;9.35;1.85;;;;;;;;;;4952985;29;20047;-85
2021/08/02 07:50:16;;;;;;;14.93;2.00;;;;;;;;;;4944912;28;20047;-83
2021/08/02 07:52:43;;;;;;;10.90;2.00;;;;;;;;;;4945419;28;20046;-86
2021/08/02 07:55:12;;;;;;;7.30;1.77;;;;;;;;;;4929523;28;20047;-86
2021/08/02 07:57:40;;;;;;;8.82;2.45;;;;;;;;;;4934404;29;20040;-86
2021/08/02 08:00:08;;;;;;;4.72;1.75;;;;;;;;;;4953988;29;20051;-86
2021/08/02 08:02:37;;;;;;;12.65;1.77;;;;;;;;;;4937601;29;20086;-86
2021/08/02 08:05:05;;;;;;;6.22;1.67;;;;;;;;;;4942516;28;20141;-86
2021/08/02 08:08:02;;;;;;;4.70;1.70;;;;;;;;;;4937643;29;20596;-87
2021/08/02 08:10:32;;;;;;;7.22;1.80;;;;;;;;;;4908929;29;20054;-86
2021/08/02 08:13:00;;;;;;;7.03;1.70;;;;;;;;;;4937426;29;20055;-86
2021/08/02 08:15:28;;;;;;;3.78;1.48;;;;;;;;;;4940194;28;20091;-86
2021/08/02 08:17:55;;;;;;;7.25;1.77;;;;;;;;;;4953428;28;20118;-86
2021/08/02 08:20:23;;;;;;;10.18;2.63;;;;;;;;;;4937861;29;20091;-86
2021/08/02 08:22:54;;;;;;;7.90;1.50;;;;;;;;;;4946217;28;20053;-87
2021/08/02 08:25:22;;;;;;;6.80;1.90;;;;;;;;;;4920503;28;20127;-86
2021/08/02 08:27:50;;;;;;;6.65;1.95;;;;;;;;;;4946936;28;20079;-86
2021/08/02 08:30:18;;;;;;;4.45;1.40;;;;;;;;;;4934668;29;20066;-87
2021/08/02 08:32:46;;;;;;;6.18;1.52;;;;;;;;;;4947075;28;20134;-86
2021/08/02 08:35:14;;;;;;;5.63;1.40;;;;;;;;;;4930381;28;20075;-87
2021/08/02 08:37:43;;;;;;;6.97;1.55;;;;;;;;;;4959920;28;20055;-86
2021/08/02 08:40:10;;;;;;;2.45;1.20;;;;;;;;;;4952537;28;20163;-86
2021/08/02 08:42:42;;;;;;;5.75;1.58;;;;;;;;;;4950276;28;20385;-86
2021/08/02 08:45:11;;;;;;;10.73;1.75;;;;;;;;;;4936269;28;20051;-86
2021/08/02 08:47:38;;;;;;;5.75;1.35;;;;;;;;;;4952846;28;20503;-86
2021/08/02 08:50:06;;;;;;;7.28;1.25;;;;;;;;;;4958487;28;20472;-87
2021/08/02 08:52:35;;;;;;;9.82;2.88;;;;;;;;;;4937832;29;20130;-85
2021/08/02 08:55:11;;;;;;;2.67;1.48;;;;;;;;;;4924517;28;20073;-86
2021/08/02 08:57:39;;;;;;;8.38;1.50;;;;;;;;;;4947013;28;20079;-86
2021/08/02 09:00:19;;;;;;;4.70;1.30;;;;;;;;;;4949164;28;20656;-85
2021/08/02 09:02:46;;;;;;;7.05;1.27;;;;;;;;;;4951001;28;20078;-85
2021/08/02 09:05:15;;;;;;;6.85;1.55;;;;;;;;;;4930765;28;20051;-85
2021/08/02 09:07:45;;;;;;;6.53;1.73;;;;;;;;;;4943619;29;20043;-85
2021/08/02 09:10:13;;;;;;;5.90;1.88;;;;;;;;;;4947301;28;20051;-84
2021/08/02 09:12:51;;;;;;;8.63;1.33;;;;;;;;;;4948728;28;20095;-86
2021/08/02 09:15:40;;;;;;;6.63;1.48;;;;;;;;;;4934953;28;20979;-86
2021/08/02 09:18:09;;;;;;;4.57;1.38;;;;;;;;;;4934459;29;20062;-86
2021/08/02 09:20:37;;;;;;;3.72;1.40;;;;;;;;;;4941911;28;20046;-85
2021/08/02 09:23:06;;;;;;;5.07;1.40;;;;;;;;;;4945977;28;20617;-86
2021/08/02 09:25:34;;;;;;;6.75;1.20;;;;;;;;;;4948467;28;20080;-86
2021/08/02 09:28:10;;;;;;;10.38;1.67;;;;;;;;;;4939652;29;20130;-85
2021/08/02 09:30:41;;;;;;;4.85;1.42;;;;;;;;;;4938098;29;20584;-86
2021/08/02 09:33:09;;;;;;;7.55;2.03;;;;;;;;;;4937348;29;20440;-86
2021/08/02 09:35:39;;;;;;;9.82;1.30;;;;;;;;;;4927879;29;20655;-87
2021/08/02 09:38:08;;;;;;;3.78;1.35;;;;;;;;;;4950540;29;20138;-85
2021/08/02 09:40:52;;;;;;;10.45;1.52;;;;;;;;;;4953980;28;20475;-84
2021/08/02 09:43:25;;;;;;;9.57;2.10;;;;;;;;;;4940021;28;20047;-86
2021/08/02 09:46:09;;;;;;;4.10;1.20;;;;;;;;;;4950326;28;20051;-86
2021/08/02 09:48:41;;;;;;;8.95;1.13;;;;;;;;;;4939726;29;20047;-86
2021/08/02 09:51:09;;;;;;;8.55;1.60;;;;;;;;;;4951895;29;20071;-85
2021/08/02 09:53:42;;;;;;;5.88;1.10;;;;;;;;;;4940063;28;20579;-86
2021/08/02 09:56:16;;;;;;;10.82;1.17;;;;;;;;;;4939953;28;20051;-86
2021/08/02 09:59:03;;;;;;;6.47;1.35;;;;;;;;;;4946823;29;20058;-86
2021/08/02 10:01:30;;;;;;;3.75;0.98;;;;;;;;;;4939469;28;20138;-85
2021/08/02 10:03:59;;;;;;;3.72;1.33;;;;;;;;;;4958771;28;20124;-85
2021/08/02 10:06:27;;;;;;;5.03;1.10;;;;;;;;;;4934058;28;20101;-85
2021/08/02 10:08:56;;;;;;;5.40;1.30;;;;;;;;;;4930032;29;20055;-85
2021/08/02 10:11:23;;;;;;;2.80;1.20;;;;;;;;;;4933252;29;20741;-85
2021/08/02 10:13:52;;;;;;;3.63;1.58;;;;;;;;;;4942158;29;20051;-86
2021/08/02 10:16:26;;;;;;;4.07;1.10;;;;;;;;;;4928449;29;20129;-85
2021/08/02 10:19:04;;;;;;;5.60;2.00;;;;;;;;;;4938775;29;20137;-84
2021/08/02 10:21:42;;;;;;;6.35;1.30;;;;;;;;;;4953147;28;20139;-85
2021/08/02 10:24:11;;;;;;;4.63;1.10;;;;;;;;;;4942225;28;20828;-86
2021/08/02 10:26:40;;;;;;;6.10;1.20;;;;;;;;;;4946246;28;20042;-85
2021/08/02 10:29:09;;;;;;;2.30;1.00;;;;;;;;;;4955145;28;20050;-84
2021/08/02 10:31:55;;;;;;;7.25;2.30;;;;;;;;;;4935591;29;20054;-85
2021/08/02 10:34:23;;;;;;;6.80;1.85;;;;;;;;;;4931042;28;20053;-84
2021/08/02 10:37:05;;;;;;;5.50;1.20;;;;;;;;;;4948348;28;20094;-84
2021/08/02 10:39:33;;;;;;;4.65;1.13;;;;;;;;;;4946439;28;20047;-85
2021/08/02 10:42:08;;;;;;;12.32;2.65;;;;;;;;;;4960822;28;20051;-85
2021/08/02 10:44:56;;;;;;;4.72;1.15;;;;;;;;;;4908003;29;20094;-86
2021/08/02 10:47:23;;;;;;;4.22;1.08;;;;;;;;;;4929723;29;20059;-86
2021/08/02 10:50:03;;;;;;;4.15;1.45;;;;;;;;;;4927576;29;20047;-86
2021/08/02 10:52:31;;;;;;;3.25;1.05;;;;;;;;;;4939215;29;20049;-85
2021/08/02 10:54:58;;;;;;;6.07;1.00;;;;;;;;;;4940241;28;20051;-85
2021/08/02 10:57:27;;;;;;;3.40;1.10;;;;;;;;;;4960997;28;20138;-86
2021/08/02 10:59:54;;;;;;;8.32;1.30;;;;;;;;;;4925705;28;20835;-85
2021/08/02 11:02:22;;;;;;;3.83;0.80;;;;;;;;;;4949618;29;20047;-86
2021/08/02 11:04:54;;;;;;;6.30;1.25;;;;;;;;;;4923207;29;20061;-86
2021/08/02 11:07:22;;;;;;;2.90;0.90;;;;;;;;;;4941322;29;20043;-86
2021/08/02 11:09:50;;;;;;;4.45;1.45;;;;;;;;;;4943775;28;20050;-85
2021/08/02 11:12:18;;;;;;;4.75;1.20;;;;;;;;;;4963468;28;20059;-86
2021/08/02 11:14:47;;;;;;;4.53;1.10;;;;;;;;;;4937580;28;20484;-86
2021/08/02 11:17:22;;;;;;;2.20;1.25;;;;;;;;;;4935037;29;20135;-85
2021/08/02 11:20:08;;;;;;;3.58;1.20;;;;;;;;;;4935207;29;20165;-86
2021/08/02 11:22:55;;;;;;;5.75;1.55;;;;;;;;;;4934106;29;20065;-86
2021/08/02 11:25:23;;;;;;;5.28;1.13;;;;;;;;;;4936633;28;20059;-86
2021/08/02 11:27:57;;;;;;;5.03;1.05;;;;;;;;;;4951241;28;20051;-86
2021/08/02 11:30:27;;;;;;;3.10;1.23;;;;;;;;;;4944293;28;20500;-85
2021/08/02 11:32:56;;;;;;;4.78;1.25;;;;;;;;;;4955917;28;20046;-85
2021/08/02 11:35:37;;;;;;;2.78;1.05;;;;;;;;;;4918837;28;20043;-85
2021/08/02 11:38:04;;;;;;;4.13;1.67;;;;;;;;;;4953179;28;20047;-85
2021/08/02 11:40:38;;;;;;;9.23;1.50;;;;;;;;;;4963058;28;20095;-84
2021/08/02 11:43:09;;;;;;;5.13;1.58;;;;;;;;;;4947247;29;20090;-85
2021/08/02 11:45:44;;;;;;;2.90;1.27;;;;;;;;;;4953967;28;20078;-84
2021/08/02 11:48:11;;;;;;;5.25;0.93;;;;;;;;;;4945866;28;20051;-85
2021/08/02 11:50:52;;;;;;;3.20;1.13;;;;;;;;;;4937288;29;20109;-85
2021/08/02 11:53:19;;;;;;;19.15;1.48;;;;;;;;;;4936203;29;20138;-85
2021/08/02 11:55:50;;;;;;;2.63;0.90;;;;;;;;;;4929054;28;20099;-85
2021/08/02 11:58:18;;;;;;;2.85;1.30;;;;;;;;;;4949297;29;20044;-85
2021/08/02 12:00:45;;;;;;;5.18;1.10;;;;;;;;;;4933625;29;20086;-84
2021/08/02 12:03:12;;;;;;;6.10;1.10;;;;;;;;;;4944133;28;20070;-85
2021/08/02 12:05:40;;;;;;;11.25;1.67;;;;;;;;;;4925961;29;20051;-85
2021/08/02 12:08:18;;;;;;;3.20;1.40;;;;;;;;;;4934232;28;20067;-85
2021/08/02 12:11:17;;;;;;;5.70;1.00;;;;;;;;;;4935654;29;20047;-84
2021/08/02 12:13:46;;;;;;;4.13;1.50;;;;;;;;;;4930700;29;20440;-84
2021/08/02 12:16:24;;;;;;;2.50;1.17;;;;;;;;;;4929456;29;20429;-86
2021/08/02 12:19:13;;;;;;;5.40;1.17;;;;;;;;;;4946889;29;20051;-86
2021/08/02 12:21:40;;;;;;;11.02;2.08;;;;;;;;;;4936258;29;20103;-85
2021/08/02 12:24:08;;;;;;;4.93;0.98;;;;;;;;;;4924978;29;20896;-85
2021/08/02 12:26:48;;;;;;;6.57;1.27;;;;;;;;;;4933410;29;20099;-86
2021/08/02 12:29:22;;;;;;;7.30;1.70;;;;;;;;;;4953198;28;20514;-84
2021/08/02 12:32:16;;;;;;;4.15;1.10;;;;;;;;;;4956877;28;20047;-85
2021/08/02 12:34:43;;;;;;;2.65;1.40;;;;;;;;;;4923192;29;20051;-86
2021/08/02 12:37:11;;;;;;;7.30;1.60;;;;;;;;;;4959400;28;20089;-85
2021/08/02 12:39:39;;;;;;;4.97;1.08;;;;;;;;;;4948795;28;20167;-86
2021/08/02 12:42:06;;;;;;;7.00;1.58;;;;;;;;;;4936596;28;20047;-86
2021/08/02 12:44:36;;;;;;;7.45;1.55;;;;;;;;;;4941074;28;20086;-84
2021/08/02 12:47:03;;;;;;;20.42;2.45;;;;;;;;;;4953123;29;20666;-86
2021/08/02 12:49:35;;;;;;;13.23;1.83;;;;;;;;;;4936929;29;20075;-85
2021/08/02 12:52:02;;;;;;;5.25;1.63;;;;;;;;;;4953125;29;20047;-86
2021/08/02 12:54:29;;;;;;;6.00;1.73;;;;;;;;;;4928221;28;20126;-86
2021/08/02 12:56:59;;;;;;;4.13;1.48;;;;;;;;;;4946725;28;20058;-85
2021/08/02 12:59:26;;;;;;;4.78;1.63;;;;;;;;;;4942764;29;20059;-87
2021/08/02 13:01:53;;;;;;;6.10;1.77;;;;;;;;;;4953206;29;20654;-87
2021/08/02 13:04:20;;;;;;;9.00;2.63;;;;;;;;;;4928264;28;20063;-88
2021/08/02 13:06:49;;;;;;;6.57;1.55;;;;;;;;;;4939852;29;20270;-87
2021/08/02 13:09:16;;;;;;;7.10;2.40;;;;;;;;;;4946580;28;20070;-87
2021/08/02 13:11:51;;;;;;;10.27;2.35;;;;;;;;;;4950627;28;20098;-87
2021/08/02 13:14:18;;;;;;;6.45;2.15;;;;;;;;;;4932566;29;20089;-86
2021/08/02 13:16:46;;;;;;;11.88;2.17;;;;;;;;;;4951019;29;20086;-86
2021/08/02 13:19:13;;;;;;;9.70;2.70;;;;;;;;;;4938379;29;20458;-87
2021/08/02 13:21:53;;;;;;;7.53;2.53;;;;;;;;;;4954120;29;20125;-87
2021/08/02 13:27:15;;;;;;;6.20;2.70;;;;;;;;;;4956723;28;20046;-87
2021/08/02 13:29:43;;;;;;;6.03;2.30;;;;;;;;;;4958659;28;20138;-87
2021/08/02 13:32:10;;;;;;;13.48;2.70;;;;;;;;;;4937514;29;20134;-87
2021/08/02 13:34:42;;;;;;;4.32;1.90;;;;;;;;;;4956927;28;20101;-87
2021/08/02 13:37:09;;;;;;;4.95;2.30;;;;;;;;;;4954006;29;20078;-86
2021/08/02 13:39:37;;;;;;;6.00;2.00;;;;;;;;;;4954216;28;20043;-87
2021/08/02 13:42:05;;;;;;;5.45;1.85;;;;;;;;;;4937649;29;20091;-86
2021/08/02 13:44:34;;;;;;;4.43;2.10;;;;;;;;;;4929499;28;20078;-87
2021/08/02 13:47:02;;;;;;;5.93;1.95;;;;;;;;;;4936879;29;20133;-87
2021/08/02 13:49:29;;;;;;;4.30;1.67;;;;;;;;;;4953548;29;20059;-86
2021/08/02 13:51:56;;;;;;;7.95;1.67;;;;;;;;;;4954471;28;20051;-86
2021/08/02 13:54:23;;;;;;;8.60;1.90;;;;;;;;;;4952452;28;20050;-87
2021/08/02 13:56:51;;;;;;;5.80;1.42;;;;;;;;;;4936641;28;20058;-86
2021/08/02 13:59:33;;;;;;;5.75;1.77;;;;;;;;;;4958531;28;20121;-86
2021/08/02 14:02:10;;;;;;;4.75;1.30;;;;;;;;;;4924021;29;20071;-86
2021/08/02 14:04:37;;;;;;;5.60;1.50;;;;;;;;;;4940765;29;20126;-86
2021/08/02 14:07:12;;;;;;;4.72;1.48;;;;;;;;;;4951723;28;20119;-87
2021/08/02 14:09:39;;;;;;;8.38;1.67;;;;;;;;;;4943944;28;20114;-86
2021/08/02 14:12:08;;;;;;;6.70;1.52;;;;;;;;;;4936967;29;20079;-87
2021/08/02 14:14:38;;;;;;;6.38;1.67;;;;;;;;;;4944687;28;20074;-87
2021/08/02 14:17:07;;;;;;;4.80;1.45;;;;;;;;;;4944398;29;20047;-86
2021/08/02 14:19:38;;;;;;;2.35;1.25;;;;;;;;;;4937386;29;20106;-86
2021/08/02 14:22:05;;;;;;;8.77;2.03;;;;;;;;;;4936188;28;20114;-85
2021/08/02 14:24:33;;;;;;;3.97;1.50;;;;;;;;;;4911280;29;20079;-86
2021/08/02 14:27:01;;;;;;;3.35;1.40;;;;;;;;;;4942096;28;20043;-86
2021/08/02 14:29:28;;;;;;;4.85;1.60;;;;;;;;;;4946639;29;20051;-86
2021/08/02 14:31:59;;;;;;;5.55;1.48;;;;;;;;;;4943203;29;20077;-87
2021/08/02 14:34:27;;;;;;;8.07;1.70;;;;;;;;;;4928993;28;20071;-85
2021/08/02 14:36:55;;;;;;;4.57;1.90;;;;;;;;;;4947783;28;20075;-85
2021/08/02 14:39:25;;;;;;;11.13;1.60;;;;;;;;;;4930456;29;20091;-85
2021/08/02 14:41:58;;;;;;;5.00;1.50;;;;;;;;;;4933163;29;20047;-86
2021/08/02 14:44:26;;;;;;;2.33;1.20;;;;;;;;;;4937989;28;20134;-85
2021/08/02 14:46:55;;;;;;;3.65;1.55;;;;;;;;;;4929559;29;20051;-86
2021/08/02 14:49:26;;;;;;;6.20;2.33;;;;;;;;;;4952093;29;20050;-87
2021/08/02 14:51:53;;;;;;;5.47;1.95;;;;;;;;;;4936031;29;20642;-86
2021/08/02 14:54:25;;;;;;;5.68;1.67;;;;;;;;;;4927145;29;20055;-86
2021/08/02 14:56:52;;;;;;;7.07;1.90;;;;;;;;;;4931453;29;20090;-86
2021/08/02 14:59:29;;;;;;;11.25;2.20;;;;;;;;;;4965536;28;20141;-85
2021/08/02 15:01:56;;;;;;;4.43;1.63;;;;;;;;;;4954016;28;20079;-87
2021/08/02 15:04:26;;;;;;;6.32;1.90;;;;;;;;;;4947873;28;20054;-87
2021/08/02 15:06:54;;;;;;;9.38;2.20;;;;;;;;;;4956992;28;20133;-89
2021/08/02 15:09:22;;;;;;;7.18;2.25;;;;;;;;;;4937386;29;20047;-88
2021/08/02 15:11:49;;;;;;;6.30;1.75;;;;;;;;;;4950888;28;20046;-88
2021/08/02 15:14:17;;;;;;;9.48;3.03;;;;;;;;;;4927526;28;21114;-89
2021/08/02 15:17:03;;;;;;;8.40;2.13;;;;;;;;;;4942673;28;20050;-88
2021/08/02 15:19:37;;;;;;;5.90;2.00;;;;;;;;;;4938747;29;20051;-88
2021/08/02 15:22:11;;;;;;;8.27;1.90;;;;;;;;;;4942021;29;20063;-88
2021/08/02 15:24:44;;;;;;;9.10;2.17;;;;;;;;;;4931836;28;20366;-88
2021/08/02 15:27:14;;;;;;;4.32;1.48;;;;;;;;;;4946745;28;20102;-88